createdAt,value
2022-10-16T00:01:18.514Z,76.80
2022-10-16T00:04:42.262Z,76.90
2022-10-16T00:08:09.145Z,76.90
2022-10-16T00:11:37.576Z,76.90
2022-10-16T00:15:01.305Z,77.10
2022-10-16T00:18:27.318Z,77.30
2022-10-16T00:21:51.255Z,76.90
2022-10-16T00:25:34.613Z,77.00
2022-10-16T00:28:58.555Z,77.00
2022-10-16T00:32:22.986Z,77.00
2022-10-16T00:35:48.759Z,77.00
2022-10-16T00:39:15.608Z,77.30
2022-10-16T00:42:39.322Z,78.00
2022-10-16T00:46:05.732Z,77.20
2022-10-16T00:49:30.855Z,77.00
2022-10-16T00:52:58.232Z,77.10
2022-10-16T00:56:21.887Z,77.30
2022-10-16T00:59:46.988Z,77.20
2022-10-16T01:03:25.766Z,77.10
2022-10-16T01:07:02.001Z,77.60
2022-10-16T01:10:33.946Z,77.60
2022-10-16T01:14:02.213Z,77.80
2022-10-16T01:17:34.728Z,77.60
2022-10-16T01:21:04.716Z,77.90
2022-10-16T01:24:35.315Z,78.00
2022-10-16T01:28:04.406Z,77.90
2022-10-16T01:31:33.933Z,78.20
2022-10-16T01:35:03.666Z,78.20
2022-10-16T01:38:33.310Z,78.30
2022-10-16T01:42:05.492Z,78.30
2022-10-16T01:45:31.605Z,78.40
2022-10-16T01:48:59.575Z,78.40
2022-10-16T01:52:27.617Z,78.50
2022-10-16T01:55:54.688Z,78.60
2022-10-16T01:59:23.170Z,78.60
2022-10-16T02:02:52.058Z,79.20
2022-10-16T02:06:16.420Z,78.60
2022-10-16T02:09:41.198Z,78.70
2022-10-16T02:13:10.286Z,78.50
2022-10-16T02:16:39.598Z,78.60
2022-10-16T02:20:06.367Z,78.70
2022-10-16T02:23:39.660Z,79.60
2022-10-16T02:27:09.148Z,78.70
2022-10-16T02:30:38.128Z,78.70
2022-10-16T02:34:03.869Z,78.80
2022-10-16T02:37:30.302Z,78.80
2022-10-16T02:40:54.998Z,78.90
2022-10-16T02:44:19.434Z,78.70
2022-10-16T02:47:45.937Z,78.60
2022-10-16T02:51:10.475Z,78.30
2022-10-16T02:54:35.787Z,78.20
2022-10-16T02:58:01.547Z,78.10
2022-10-16T03:01:25.815Z,78.10
2022-10-16T03:04:49.455Z,77.90
2022-10-16T03:08:13.516Z,77.80
2022-10-16T03:11:38.846Z,77.60
2022-10-16T03:15:03.145Z,77.50
2022-10-16T03:18:27.501Z,78.00
2022-10-16T03:21:51.635Z,77.20
2022-10-16T03:25:15.575Z,77.10
2022-10-16T03:28:40.919Z,77.10
2022-10-16T03:32:04.656Z,77.20
2022-10-16T03:35:30.807Z,77.00
2022-10-16T03:38:57.166Z,77.00
2022-10-16T03:42:21.636Z,76.80
2022-10-16T03:45:46.892Z,76.80
2022-10-16T03:49:10.642Z,76.70
2022-10-16T03:52:34.623Z,76.80
2022-10-16T03:55:59.157Z,76.80
2022-10-16T03:59:25.119Z,76.80
2022-10-16T04:02:53.037Z,77.60
2022-10-16T04:06:17.607Z,76.90
2022-10-16T04:09:41.618Z,76.80
2022-10-16T04:13:05.646Z,76.80
2022-10-16T04:16:29.619Z,76.70
2022-10-16T04:19:54.934Z,76.60
2022-10-16T04:23:18.630Z,76.40
2022-10-16T04:26:42.703Z,76.20
2022-10-16T04:30:07.688Z,76.10
2022-10-16T04:33:31.712Z,76.10
2022-10-16T04:37:00.190Z,76.00
2022-10-16T04:40:24.761Z,75.80
2022-10-16T04:43:48.656Z,75.60
2022-10-16T04:47:12.748Z,75.60
2022-10-16T04:50:39.673Z,75.40
2022-10-16T04:54:07.517Z,75.70
2022-10-16T04:57:32.016Z,75.50
2022-10-16T05:00:56.724Z,75.50
2022-10-16T05:04:24.779Z,75.50
2022-10-16T05:07:49.154Z,75.10
2022-10-16T05:11:14.996Z,75.00
2022-10-16T05:14:38.637Z,75.10
2022-10-16T05:18:04.869Z,75.00
2022-10-16T05:21:28.851Z,75.00
2022-10-16T05:24:53.180Z,75.00
2022-10-16T05:28:20.386Z,74.70
2022-10-16T05:31:45.722Z,74.80
2022-10-16T05:35:12.619Z,74.70
2022-10-16T05:38:37.122Z,74.80
2022-10-16T05:42:01.744Z,75.60
2022-10-16T05:45:27.086Z,74.80
2022-10-16T05:48:55.058Z,74.70
2022-10-16T05:52:18.783Z,74.80
2022-10-16T05:55:45.259Z,74.70
2022-10-16T05:59:09.046Z,74.60
2022-10-16T06:02:34.178Z,74.40
2022-10-16T06:05:58.746Z,74.40
2022-10-16T06:09:25.137Z,74.40
2022-10-16T06:12:48.774Z,74.20
2022-10-16T06:16:13.164Z,74.10
2022-10-16T06:19:39.148Z,74.10
2022-10-16T06:23:07.407Z,73.90
2022-10-16T06:26:33.564Z,73.70
2022-10-16T06:29:58.497Z,73.60
2022-10-16T06:33:23.004Z,73.30
2022-10-16T06:36:48.185Z,73.20
2022-10-16T06:40:16.227Z,72.50
2022-10-16T06:43:42.045Z,71.90
2022-10-16T06:47:05.634Z,71.70
2022-10-16T06:50:29.873Z,71.60
2022-10-16T06:54:03.201Z,71.50
2022-10-16T06:57:28.801Z,71.50
2022-10-16T07:00:57.852Z,71.40
2022-10-16T07:04:21.635Z,71.80
2022-10-16T07:07:45.824Z,71.80
2022-10-16T07:11:13.315Z,71.60
2022-10-16T07:14:37.159Z,69.80
2022-10-16T07:18:00.804Z,67.90
2022-10-16T07:21:26.557Z,67.80
2022-10-16T07:24:52.814Z,66.50
2022-10-16T07:28:18.278Z,60.20
2022-10-16T07:31:43.318Z,57.20
2022-10-16T07:35:12.404Z,56.00
2022-10-16T07:38:36.042Z,56.50
2022-10-16T07:41:59.651Z,56.70
2022-10-16T07:45:24.822Z,56.00
2022-10-16T07:48:49.324Z,53.70
2022-10-16T07:52:13.027Z,54.30
2022-10-16T07:55:36.804Z,54.10
2022-10-16T07:59:00.550Z,55.20
2022-10-16T08:02:25.729Z,56.90
2022-10-16T08:05:49.403Z,57.30
2022-10-16T08:09:13.085Z,58.90
2022-10-16T08:12:36.689Z,55.50
2022-10-16T08:16:00.520Z,51.20
2022-10-16T08:19:25.553Z,48.60
2022-10-16T08:22:49.138Z,46.00
2022-10-16T08:26:13.829Z,45.50
2022-10-16T08:29:37.569Z,43.90
2022-10-16T08:33:01.519Z,42.40
2022-10-16T08:36:26.634Z,40.60
2022-10-16T08:39:50.332Z,40.70
2022-10-16T08:43:33.888Z,40.60
2022-10-16T08:47:07.710Z,38.70
2022-10-16T08:50:33.526Z,38.80
2022-10-16T08:54:00.223Z,40.20
2022-10-16T08:57:26.884Z,39.30
2022-10-16T09:00:55.494Z,38.70
2022-10-16T09:04:57.391Z,38.30
2022-10-16T09:08:29.988Z,38.30
2022-10-16T09:12:01.298Z,39.90
2022-10-16T09:15:33.365Z,40.20
2022-10-16T09:19:03.115Z,40.60
2022-10-16T09:22:30.338Z,41.70
2022-10-16T09:25:55.104Z,40.20
2022-10-16T09:29:22.507Z,41.50
2022-10-16T09:32:48.277Z,42.10
2022-10-16T09:36:13.993Z,43.40
2022-10-16T09:39:47.086Z,43.20
2022-10-16T09:43:24.603Z,41.10
2022-10-16T09:46:49.804Z,43.50
2022-10-16T09:50:24.190Z,43.00
2022-10-16T09:53:49.351Z,44.20
2022-10-16T09:57:15.749Z,45.70
2022-10-16T10:00:43.413Z,46.90
2022-10-16T10:04:09.739Z,45.50
2022-10-16T10:07:35.622Z,43.20
2022-10-16T10:10:59.216Z,42.20
2022-10-16T10:14:29.559Z,43.70
2022-10-16T10:17:54.876Z,43.80
2022-10-16T10:21:19.946Z,42.40
2022-10-16T10:24:44.299Z,42.70
2022-10-16T10:28:46.330Z,44.20
2022-10-16T10:32:23.942Z,43.50
2022-10-16T10:35:57.043Z,43.40
2022-10-16T10:39:28.133Z,43.00
2022-10-16T10:42:58.740Z,42.00
2022-10-16T10:46:31.145Z,43.50
2022-10-16T10:50:04.911Z,45.00
2022-10-16T10:53:41.316Z,44.90
2022-10-16T10:57:16.796Z,45.70
2022-10-16T11:00:51.928Z,46.40
2022-10-16T11:04:36.036Z,47.40
2022-10-16T11:08:02.680Z,48.10
2022-10-16T11:11:33.768Z,49.20
2022-10-16T11:15:03.756Z,49.30
2022-10-16T11:18:33.082Z,50.20
2022-10-16T11:22:03.399Z,49.80
2022-10-16T11:25:32.293Z,50.10
2022-10-16T11:28:59.369Z,49.90
2022-10-16T11:32:29.753Z,50.30
2022-10-16T11:35:57.574Z,49.20
2022-10-16T11:39:23.908Z,50.10
2022-10-16T11:42:56.354Z,49.10
2022-10-16T11:46:25.965Z,49.00
2022-10-16T11:49:56.526Z,49.10
2022-10-16T11:53:30.379Z,49.10
2022-10-16T11:56:59.879Z,49.20
2022-10-16T12:00:27.036Z,49.30
2022-10-16T12:04:09.735Z,49.30
2022-10-16T12:07:49.216Z,49.60
2022-10-16T12:11:35.000Z,50.20
2022-10-16T12:15:22.276Z,49.80
2022-10-16T12:18:51.027Z,49.90
2022-10-16T12:22:24.621Z,50.10
2022-10-16T12:25:59.841Z,50.00
2022-10-16T12:29:34.454Z,49.90
2022-10-16T12:33:03.884Z,49.70
2022-10-16T12:36:33.890Z,49.30
2022-10-16T12:39:59.513Z,49.40
2022-10-16T12:43:37.392Z,49.70
2022-10-16T12:47:07.774Z,49.70
2022-10-16T12:50:35.745Z,49.70
2022-10-16T12:54:10.995Z,50.00
2022-10-16T12:57:47.594Z,49.60
2022-10-16T13:01:27.954Z,49.30
2022-10-16T13:05:06.223Z,49.20
2022-10-16T13:08:47.979Z,48.80
2022-10-16T13:12:36.901Z,49.20
2022-10-16T13:16:12.282Z,49.20
2022-10-16T13:19:50.022Z,49.30
2022-10-16T13:23:26.316Z,49.60
2022-10-16T13:27:00.938Z,49.70
2022-10-16T13:30:30.755Z,50.00
2022-10-16T13:34:04.267Z,49.70
2022-10-16T13:37:31.097Z,49.70
2022-10-16T13:40:57.027Z,49.10
2022-10-16T13:44:22.675Z,49.90
2022-10-16T13:47:46.208Z,49.30
2022-10-16T13:51:16.320Z,49.70
2022-10-16T13:54:42.950Z,50.10
2022-10-16T13:58:14.733Z,49.90
2022-10-16T14:01:45.349Z,49.90
2022-10-16T14:05:12.189Z,50.40
2022-10-16T14:08:36.732Z,50.50
2022-10-16T14:12:05.574Z,50.40
2022-10-16T14:15:30.129Z,50.90
2022-10-16T14:19:00.735Z,51.00
2022-10-16T14:22:31.771Z,50.90
2022-10-16T14:25:55.448Z,50.80
2022-10-16T14:29:22.038Z,50.50
2022-10-16T14:32:56.391Z,50.70
2022-10-16T14:36:22.039Z,50.50
2022-10-16T14:39:51.260Z,50.40
2022-10-16T14:43:23.613Z,50.50
2022-10-16T14:46:48.907Z,50.50
2022-10-16T14:50:12.462Z,50.60
2022-10-16T14:53:36.019Z,50.90
2022-10-16T14:57:00.807Z,51.10
2022-10-16T15:00:26.102Z,50.90
2022-10-16T15:03:53.304Z,51.30
2022-10-16T15:07:17.340Z,51.80
2022-10-16T15:10:43.246Z,51.70
2022-10-16T15:14:07.269Z,51.90
2022-10-16T15:17:30.875Z,51.90
2022-10-16T15:20:55.859Z,51.70
2022-10-16T15:24:21.575Z,51.60
2022-10-16T15:27:45.486Z,51.70
2022-10-16T15:31:09.138Z,51.80
2022-10-16T15:34:32.697Z,52.00
2022-10-16T15:37:57.862Z,52.10
2022-10-16T15:41:21.727Z,52.30
2022-10-16T15:44:45.268Z,52.40
2022-10-16T15:48:14.066Z,52.60
2022-10-16T15:51:40.690Z,52.90
2022-10-16T15:55:06.411Z,53.10
2022-10-16T15:58:31.051Z,53.20
2022-10-16T16:01:54.714Z,53.70
2022-10-16T16:05:18.477Z,54.00
2022-10-16T16:08:42.127Z,54.30
2022-10-16T16:12:07.074Z,55.50
2022-10-16T16:15:30.684Z,56.10
2022-10-16T16:18:54.932Z,56.60
2022-10-16T16:22:18.681Z,56.90
2022-10-16T16:25:42.337Z,57.00
2022-10-16T16:29:07.400Z,57.20
2022-10-16T16:32:31.620Z,57.40
2022-10-16T16:35:59.614Z,57.90
2022-10-16T16:39:23.696Z,58.30
2022-10-16T16:42:49.889Z,58.50
2022-10-16T16:46:15.397Z,59.10
2022-10-16T16:49:38.941Z,59.20
2022-10-16T16:53:02.785Z,59.50
2022-10-16T16:56:27.808Z,60.10
2022-10-16T16:59:52.896Z,60.00
2022-10-16T17:03:17.937Z,60.20
2022-10-16T17:06:42.222Z,61.00
2022-10-16T17:10:06.370Z,61.30
2022-10-16T17:13:31.994Z,61.50
2022-10-16T17:16:55.637Z,61.70
2022-10-16T17:20:20.610Z,61.60
2022-10-16T17:23:44.251Z,61.50
2022-10-16T17:27:07.906Z,61.80
2022-10-16T17:30:31.975Z,61.90
2022-10-16T17:33:55.946Z,61.70
2022-10-16T17:37:20.956Z,61.70
2022-10-16T17:40:44.601Z,62.70
2022-10-16T17:44:09.461Z,62.00
2022-10-16T17:47:33.050Z,62.00
2022-10-16T17:50:56.755Z,61.80
2022-10-16T17:54:22.182Z,62.40
2022-10-16T17:57:45.866Z,63.00
2022-10-16T18:01:16.938Z,63.60
2022-10-16T18:04:40.620Z,64.30
2022-10-16T18:08:04.237Z,64.30
2022-10-16T18:11:30.172Z,64.50
2022-10-16T18:14:58.362Z,64.50
2022-10-16T18:18:24.753Z,64.50
2022-10-16T18:21:51.109Z,64.50
2022-10-16T18:25:14.675Z,64.70
2022-10-16T18:28:40.146Z,64.60
2022-10-16T18:32:03.769Z,64.90
2022-10-16T18:35:27.304Z,65.10
2022-10-16T18:38:51.118Z,65.40
2022-10-16T18:42:14.637Z,65.60
2022-10-16T18:45:39.913Z,66.00
2022-10-16T18:49:04.745Z,66.00
2022-10-16T18:52:28.392Z,66.00
2022-10-16T18:55:55.126Z,66.30
2022-10-16T18:59:19.626Z,66.40
2022-10-16T19:02:44.552Z,66.90
2022-10-16T19:06:10.548Z,67.60
2022-10-16T19:09:34.139Z,67.60
2022-10-16T19:13:08.943Z,68.00
2022-10-16T19:16:44.571Z,68.20
2022-10-16T19:20:15.019Z,67.70
2022-10-16T19:23:49.251Z,67.50
2022-10-16T19:27:14.819Z,67.50
2022-10-16T19:30:40.621Z,68.00
2022-10-16T19:34:08.116Z,67.70
2022-10-16T19:37:34.323Z,67.80
2022-10-16T19:41:07.791Z,67.10
2022-10-16T19:44:33.488Z,67.40
2022-10-16T19:48:00.093Z,67.30
2022-10-16T19:51:34.770Z,67.20
2022-10-16T19:55:02.115Z,67.20
2022-10-16T19:58:27.731Z,67.30
2022-10-16T20:01:56.698Z,67.30
2022-10-16T20:05:29.857Z,67.10
2022-10-16T20:08:58.139Z,66.80
2022-10-16T20:12:25.634Z,67.00
2022-10-16T20:15:55.099Z,66.80
2022-10-16T20:19:21.157Z,67.40
2022-10-16T20:22:50.690Z,67.20
2022-10-16T20:26:25.916Z,67.50
2022-10-16T20:29:59.555Z,67.70
2022-10-16T20:33:25.594Z,67.80
2022-10-16T20:36:51.534Z,67.30
2022-10-16T20:40:19.369Z,67.50
2022-10-16T20:43:49.127Z,67.80
2022-10-16T20:47:19.020Z,67.90
2022-10-16T20:50:43.281Z,68.20
2022-10-16T20:54:07.500Z,68.60
2022-10-16T20:57:31.109Z,69.60
2022-10-16T21:00:54.632Z,71.00
2022-10-16T21:04:22.370Z,71.70
2022-10-16T21:07:49.902Z,72.40
2022-10-16T21:11:16.500Z,73.20
2022-10-16T21:14:51.090Z,73.90
2022-10-16T21:18:25.230Z,74.60
2022-10-16T21:21:55.168Z,74.70
2022-10-16T21:25:19.107Z,75.30
2022-10-16T21:28:43.215Z,75.90
2022-10-16T21:32:06.806Z,76.30
2022-10-16T21:35:32.070Z,76.50
2022-10-16T21:38:57.430Z,74.80
2022-10-16T21:42:21.937Z,75.20
2022-10-16T21:45:45.417Z,75.20
2022-10-16T21:49:15.601Z,75.20
2022-10-16T21:52:39.954Z,75.70
2022-10-16T21:56:05.672Z,75.90
2022-10-16T21:59:29.965Z,75.80
2022-10-16T22:02:53.919Z,75.70
2022-10-16T22:09:45.190Z,75.90
2022-10-16T22:13:11.319Z,75.80
2022-10-16T22:16:35.699Z,75.90
2022-10-16T22:19:59.900Z,75.80
2022-10-16T22:23:24.585Z,75.80
2022-10-16T22:26:51.353Z,75.60
2022-10-16T22:30:16.414Z,75.80
2022-10-16T22:33:40.238Z,75.90
2022-10-16T22:37:03.930Z,76.60
2022-10-16T22:40:28.061Z,76.70
2022-10-16T22:43:52.483Z,77.00
2022-10-16T22:47:18.429Z,77.10
2022-10-16T22:50:42.168Z,77.10
2022-10-16T22:54:06.092Z,77.30
2022-10-16T22:57:29.661Z,77.50
2022-10-16T23:00:54.226Z,78.00
2022-10-16T23:04:19.378Z,78.30
2022-10-16T23:07:44.608Z,78.20
2022-10-16T23:11:10.776Z,78.10
2022-10-16T23:14:35.071Z,78.00
2022-10-16T23:17:59.114Z,78.00
2022-10-16T23:21:26.673Z,78.60
2022-10-16T23:24:50.278Z,78.60
2022-10-16T23:31:42.822Z,78.20
2022-10-16T23:35:07.622Z,78.40
2022-10-16T23:38:33.606Z,78.60
2022-10-16T23:41:57.360Z,79.40
2022-10-16T23:45:21.090Z,79.60
2022-10-16T23:48:45.511Z,79.90
2022-10-16T23:52:09.058Z,79.80
2022-10-16T23:55:34.534Z,79.70
2022-10-16T23:58:59.094Z,79.40
